AAL94 KJFK-LEMD
Flight info
| Callsign | AAL94 |
|---|---|
| Flight time | N/A |
| Altitude | 37000 |
| Route | BETTE DCT RIFLE DCT ACK DCT VITOL/M084F370 N21A CARAC/M084F390 DCT JEBBY DCT 44N050W 44N040W 4330N03000W/M084F410 43N020W DCT ARMED/N0483F410 DCT XAPIM DCT RIVRO DCT BARDI DCT RIDAV |
| Aircraft | B772/H-SDE2E3FGHIJ5LORVWXY/LB1D1 |
Departure
| Time | 2026-05-01 15:31 |
|---|---|
| Airport | John F. Kennedy International Airport (KJFK) |
Arrival
| Time | N/A |
|---|---|
| Airport | Adolfo Suárez Madrid–Barajas Airport (LEMD) |
| Time | Latitude | Longitude | Altitude | Speed | Heading |
|---|---|---|---|---|---|
| 2026-05-01 14:57 | 40.64864 | -73.79539 | 22 ft | 0 kts | 311° |
| 2026-05-01 15:19 | 40.64858 | -73.79530 | 22 ft | 2 kts | 311° |
| 2026-05-01 15:20 | 40.64838 | -73.79501 | 22 ft | 2 kts | 311° |
| 2026-05-01 15:20 | 40.64831 | -73.79491 | 22 ft | 2 kts | 310° |
| 2026-05-01 15:20 | 40.64823 | -73.79475 | 22 ft | 2 kts | 288° |
| 2026-05-01 15:21 | 40.64821 | -73.79456 | 22 ft | 2 kts | 269° |
| 2026-05-01 15:21 | 40.64823 | -73.79436 | 22 ft | 2 kts | 250° |
| 2026-05-01 15:21 | 40.64824 | -73.79432 | 22 ft | 0 kts | 248° |
| 2026-05-01 15:23 | 40.64821 | -73.79439 | 22 ft | 5 kts | 241° |
| 2026-05-01 15:23 | 40.64790 | -73.79511 | 22 ft | 10 kts | 241° |
| 2026-05-01 15:23 | 40.64772 | -73.79552 | 22 ft | 0 kts | 240° |
| 2026-05-01 15:24 | 40.64769 | -73.79561 | 22 ft | 7 kts | 240° |
| 2026-05-01 15:24 | 40.64716 | -73.79684 | 22 ft | 16 kts | 230° |
| 2026-05-01 15:24 | 40.64614 | -73.79660 | 22 ft | 17 kts | 145° |
| 2026-05-01 15:24 | 40.64469 | -73.79594 | 22 ft | 25 kts | 175° |
| 2026-05-01 15:25 | 40.64294 | -73.79598 | 22 ft | 24 kts | 181° |
| 2026-05-01 15:25 | 40.64126 | -73.79609 | 21 ft | 24 kts | 171° |
| 2026-05-01 15:25 | 40.63983 | -73.79501 | 18 ft | 24 kts | 127° |
| 2026-05-01 15:25 | 40.63896 | -73.79312 | 20 ft | 23 kts | 120° |
| 2026-05-01 15:26 | 40.63810 | -73.79127 | 19 ft | 23 kts | 119° |
| 2026-05-01 15:26 | 40.63728 | -73.78943 | 20 ft | 23 kts | 120° |
| 2026-05-01 15:26 | 40.63643 | -73.78755 | 18 ft | 24 kts | 120° |
| 2026-05-01 15:26 | 40.63556 | -73.78565 | 18 ft | 24 kts | 121° |
| 2026-05-01 15:27 | 40.63470 | -73.78375 | 18 ft | 24 kts | 117° |
| 2026-05-01 15:27 | 40.63388 | -73.78188 | 18 ft | 22 kts | 119° |
| 2026-05-01 15:27 | 40.63328 | -73.78002 | 18 ft | 22 kts | 95° |
| 2026-05-01 15:28 | 40.63237 | -73.77646 | 18 ft | 21 kts | 122° |
| 2026-05-01 15:28 | 40.63160 | -73.77480 | 18 ft | 21 kts | 121° |
| 2026-05-01 15:28 | 40.63084 | -73.77312 | 18 ft | 21 kts | 121° |
| 2026-05-01 15:29 | 40.62936 | -73.77090 | 18 ft | 13 kts | 202° |
| 2026-05-01 15:29 | 40.62863 | -73.77147 | 18 ft | 10 kts | 212° |
| 2026-05-01 15:29 | 40.62882 | -73.77360 | 18 ft | 38 kts | 300° |
| 2026-05-01 15:30 | 40.63475 | -73.78651 | 19 ft | 152 kts | 301° |
| 2026-05-01 15:31 | 40.64671 | -73.84862 | 2309 ft | 202 kts | 241° |
| 2026-05-01 15:31 | 40.62336 | -73.87099 | 3916 ft | 216 kts | 211° |
| 2026-05-01 15:32 | 40.59495 | -73.88468 | 5419 ft | 233 kts | 180° |
| 2026-05-01 15:32 | 40.56206 | -73.87000 | 6398 ft | 271 kts | 157° |
| 2026-05-01 15:33 | 40.50690 | -73.84090 | 8437 ft | 299 kts | 138° |
| 2026-05-01 15:34 | 40.49167 | -73.76437 | 10397 ft | 312 kts | 82° |